Terminal Aerodrome Forecast
Issued by NWS

Home | Current Version | Previous Version | Text Only | Print | Product List | Glossary On
Versions: 1 2 3 4 5 6 7 8 9 10 11 12 13
000
FTUS41 KBOX 290815 AAA
TAFFMH
TAF AMD
KFMH 290815Z 2908/3006 25008KT P6SM SKC
     FM291500 25010KT P6SM OVC250
     FM291900 22015G25KT P6SM SCT140
     FM300400 21014G24KT P6SM BKN100=

USA.gov is the U.S. government's official web portal to all federal, state and local government web resources and services.